Никитовка

Карта отелей и гостиниц, располагающихся рядом с аэропортом Никитовка :



Никитовка Белгородская область 50° 22' 19.56" N, 38° 26' 11.04" E
Код аэродрома ИКАО: 
ZC4S
Код аэродрома RU: 
ЗЦ4С
Координаты: 
N50.37210° E038.43640°
Превышение над уровнем моря : 
206
Основная полоса: 
03/21
Курс магнитный: 
033/213
Длина основной ВПП: 
417
Ширина основной ВПП: 
18
Покрытие основной ВПП: 
Твёрдое (асфальт)
Тип: 
Аэродром
Освещение ВПП: 
Нет
Класс аэродрома: 
Статус: 
Недействующий
Принадлежность: 
ГА
Сайт: 
E-mail аэродрома: 
Страна: 
Россия
Регион: 
Белгородская область
Город: 
Дополнительная информация: 
Белгородская область, Россия. Площадка АХР. Магнитное склонение: +8.4°

Найти трансфер

С помощью этой формы Вы можете найти трансфер из аэропорта Никитовка в город, аэропорт или вокзал:

Карта места

Javascript is required to view this map.

Погода в аэропортах:

Авиационная погода в Лаппеэнранта

Регион: 
Погода METAR: 
EFLP 041950Z AUTO 03010KT 5000 -RA OVC004 11/11 Q0998
Время наблюдения: 
2020-06-04T19:50:00Z
Температура C: 
11.0
Точка росы: 
11.0
Направление ветра: 
30
Скорость ветра: 
10
Метеорологическая видимость: 
3.11
Явления погоды: 
-RA
Условия полета: 
LIFR

Авиационная погода в Нижнем Новгороде

Регион: 
Погода METAR: 
UWGG 042000Z 20002MPS 1900 0800NE R18L/1700U FG FEW033 13/13 Q1009 R18L/190060 TEMPO 0300 FG VV003
Время наблюдения: 
2020-06-04T20:00:00Z
Температура C: 
13.0
Точка росы: 
13.0
Направление ветра: 
200
Скорость ветра: 
4
Метеорологическая видимость: 
1.18
Явления погоды: 
FG
Условия полета: 
IFR

Авиационная погода в Нижнекамске

Регион: 
Погода METAR: 
UWKE 042000Z 13008MPS 9999 -SHRA SCT016CB 17/15 Q1015 R21/210355 NOSIG RMK QFE744/0992
Время наблюдения: 
2020-06-04T20:00:00Z
Температура C: 
17.0
Точка росы: 
15.0
Направление ветра: 
130
Скорость ветра: 
16
Метеорологическая видимость: 
6.21
Явления погоды: 
-SHRA
Условия полета: 
VFR
Аэропорт подробнее: 

Авиационная погода в Витебске

Регион: 
Погода METAR: 
UMII 041400Z 29003MPS 7000 -SHRA BKN017CB 15/14 Q1002 TEMPO 2000 TSRA BKN005
Время наблюдения: 
2020-06-04T14:00:00Z
Температура C: 
15.0
Точка росы: 
14.0
Направление ветра: 
290
Скорость ветра: 
6
Метеорологическая видимость: 
4.35
Явления погоды: 
-SHRA
Условия полета: 
MVFR